Time;durP1;ratioP1;P1;durP2;ratioP2;P2;SDS_P1;SDS_P2;PMS_P1;PMS_P2;Temp;Humidity;BMP_temperature;BMP_pressure;BME280_temperature;BME280_humidity;BME280_pressure;Samples;Min_cycle;Max_cycle;Signal;HPM_P1;HPM_P2
2023/06/06 00:02:08;;;;;;;10.50;7.35;;;;;;;;;;5014122;28;20045;-79
2023/06/06 00:04:35;;;;;;;15.60;8.20;;;;;;;;;;5028847;28;20048;-78
2023/06/06 00:07:03;;;;;;;13.73;7.80;;;;;;;;;;5046461;28;20059;-78
2023/06/06 00:09:30;;;;;;;13.02;6.80;;;;;;;;;;5053294;28;20051;-78
2023/06/06 00:11:57;;;;;;;11.35;7.03;;;;;;;;;;5052911;28;20517;-78
2023/06/06 00:14:24;;;;;;;9.05;6.20;;;;;;;;;;5053536;28;20124;-78
2023/06/06 00:16:51;;;;;;;12.68;5.60;;;;;;;;;;5053262;28;20123;-79
2023/06/06 00:19:20;;;;;;;11.27;6.15;;;;;;;;;;5053248;28;20084;-79
2023/06/06 00:21:46;;;;;;;15.55;7.38;;;;;;;;;;5020264;28;20064;-79
2023/06/06 00:24:12;;;;;;;10.35;7.30;;;;;;;;;;5013701;28;20046;-79
2023/06/06 00:26:39;;;;;;;12.50;6.72;;;;;;;;;;5013573;28;20046;-79
2023/06/06 00:29:05;;;;;;;13.13;6.93;;;;;;;;;;5021198;28;20083;-79
2023/06/06 00:31:31;;;;;;;13.55;6.63;;;;;;;;;;5023055;28;20060;-79
2023/06/06 00:33:57;;;;;;;13.88;7.57;;;;;;;;;;5020907;28;20045;-78
2023/06/06 00:36:23;;;;;;;12.68;6.85;;;;;;;;;;5048354;28;20407;-78
2023/06/06 00:38:50;;;;;;;12.57;6.72;;;;;;;;;;5052163;28;20484;-79
2023/06/06 00:41:16;;;;;;;10.20;6.63;;;;;;;;;;5053058;28;20120;-78
2023/06/06 00:43:44;;;;;;;10.88;6.82;;;;;;;;;;5049075;28;20056;-78
2023/06/06 00:46:10;;;;;;;10.90;6.50;;;;;;;;;;5042401;28;20044;-78
2023/06/06 00:48:36;;;;;;;13.13;6.90;;;;;;;;;;5034684;28;20553;-79
2023/06/06 00:51:02;;;;;;;11.70;7.00;;;;;;;;;;5032969;28;20484;-79
2023/06/06 00:53:29;;;;;;;12.98;7.57;;;;;;;;;;5032771;28;20439;-79
2023/06/06 00:55:57;;;;;;;14.90;7.85;;;;;;;;;;5032752;28;20042;-79
2023/06/06 00:58:24;;;;;;;11.85;7.13;;;;;;;;;;5031267;28;20389;-79
2023/06/06 01:00:51;;;;;;;12.48;6.97;;;;;;;;;;5031311;28;20554;-79
2023/06/06 01:03:20;;;;;;;16.52;8.13;;;;;;;;;;5032754;28;20385;-79
2023/06/06 01:05:47;;;;;;;13.85;7.45;;;;;;;;;;5017647;28;20045;-79
2023/06/06 01:08:13;;;;;;;15.00;8.30;;;;;;;;;;5013173;28;20054;-79
2023/06/06 01:10:40;;;;;;;14.65;7.32;;;;;;;;;;5024971;28;20514;-78
2023/06/06 01:13:13;;;;;;;12.43;7.35;;;;;;;;;;5032765;28;20399;-78
2023/06/06 01:15:51;;;;;;;16.27;7.80;;;;;;;;;;5043454;28;20061;-78
2023/06/06 01:18:18;;;;;;;12.95;7.78;;;;;;;;;;5052257;28;20049;-78
2023/06/06 01:20:44;;;;;;;15.70;7.93;;;;;;;;;;5047429;28;20514;-78
2023/06/06 01:23:10;;;;;;;13.13;8.48;;;;;;;;;;5032770;28;20077;-79
2023/06/06 01:25:37;;;;;;;12.65;7.50;;;;;;;;;;5033029;28;20041;-79
2023/06/06 01:28:04;;;;;;;11.55;7.00;;;;;;;;;;5031529;28;20052;-79
2023/06/06 01:30:30;;;;;;;11.77;6.57;;;;;;;;;;5032436;28;20046;-79
2023/06/06 01:32:56;;;;;;;11.57;6.85;;;;;;;;;;5032051;28;20507;-79
2023/06/06 01:35:22;;;;;;;18.55;8.18;;;;;;;;;;5048044;28;20076;-79
2023/06/06 01:37:50;;;;;;;10.75;7.13;;;;;;;;;;5032211;28;20038;-79
2023/06/06 01:40:18;;;;;;;9.30;7.13;;;;;;;;;;5032718;28;20049;-79
2023/06/06 01:42:46;;;;;;;11.95;8.07;;;;;;;;;;5032679;28;20112;-79
2023/06/06 01:45:13;;;;;;;10.55;7.07;;;;;;;;;;5032630;28;20042;-79
2023/06/06 01:47:39;;;;;;;9.13;6.45;;;;;;;;;;5032275;28;20042;-79
2023/06/06 01:50:07;;;;;;;10.90;7.07;;;;;;;;;;5036936;28;20074;-79
2023/06/06 01:52:37;;;;;;;11.75;7.50;;;;;;;;;;5038108;28;20056;-79
2023/06/06 01:55:03;;;;;;;11.77;7.20;;;;;;;;;;5056255;28;20045;-79
2023/06/06 01:57:29;;;;;;;13.50;7.13;;;;;;;;;;5037602;28;20042;-79
2023/06/06 01:59:56;;;;;;;10.90;6.80;;;;;;;;;;5016343;28;20072;-79
2023/06/06 02:02:22;;;;;;;8.63;6.75;;;;;;;;;;5021524;28;20045;-79
2023/06/06 02:04:48;;;;;;;9.20;6.50;;;;;;;;;;5035769;28;20049;-79
2023/06/06 02:07:16;;;;;;;10.75;6.72;;;;;;;;;;5036031;28;20046;-79
2023/06/06 02:09:43;;;;;;;9.55;6.68;;;;;;;;;;5035044;28;20059;-79
2023/06/06 02:12:09;;;;;;;12.05;7.18;;;;;;;;;;5034883;28;20132;-79
2023/06/06 02:14:35;;;;;;;9.95;6.50;;;;;;;;;;5037527;28;20084;-79
2023/06/06 02:17:03;;;;;;;12.45;7.25;;;;;;;;;;5038475;28;20053;-78
2023/06/06 02:19:29;;;;;;;13.50;7.68;;;;;;;;;;5038301;28;20042;-79
2023/06/06 02:21:55;;;;;;;12.98;9.00;;;;;;;;;;5039372;28;20033;-78
2023/06/06 02:24:24;;;;;;;13.45;9.40;;;;;;;;;;5040065;28;20049;-78
2023/06/06 02:26:52;;;;;;;13.85;8.77;;;;;;;;;;5038096;28;20053;-79
2023/06/06 02:29:19;;;;;;;13.23;8.30;;;;;;;;;;5036729;28;20053;-79
2023/06/06 02:31:45;;;;;;;12.95;8.00;;;;;;;;;;5035975;28;20041;-78
2023/06/06 02:34:11;;;;;;;15.52;8.50;;;;;;;;;;5033855;28;20103;-79
2023/06/06 02:36:38;;;;;;;11.60;7.68;;;;;;;;;;5034020;28;20099;-78
2023/06/06 02:39:04;;;;;;;12.38;7.75;;;;;;;;;;5035209;28;20049;-78
2023/06/06 02:41:30;;;;;;;14.73;8.30;;;;;;;;;;5040968;28;20060;-78
2023/06/06 02:43:56;;;;;;;16.08;8.68;;;;;;;;;;5054918;28;20045;-78
2023/06/06 02:46:22;;;;;;;11.48;8.18;;;;;;;;;;5055020;28;20040;-78
2023/06/06 02:48:49;;;;;;;9.80;7.35;;;;;;;;;;5046910;28;20094;-79
2023/06/06 02:51:16;;;;;;;12.60;7.80;;;;;;;;;;5022623;28;20400;-79
2023/06/06 02:53:43;;;;;;;12.55;8.65;;;;;;;;;;5020944;28;20085;-78
2023/06/06 02:56:12;;;;;;;12.85;8.25;;;;;;;;;;5015942;28;20042;-78
2023/06/06 02:58:38;;;;;;;11.73;7.82;;;;;;;;;;5015416;28;20392;-78
2023/06/06 03:01:05;;;;;;;14.57;7.55;;;;;;;;;;5014926;28;20147;-78
2023/06/06 03:03:31;;;;;;;11.18;6.38;;;;;;;;;;5021931;28;20056;-78
2023/06/06 03:05:58;;;;;;;13.57;7.32;;;;;;;;;;5034711;28;20056;-78
2023/06/06 03:08:25;;;;;;;12.82;7.63;;;;;;;;;;5034908;28;20119;-78
2023/06/06 03:10:51;;;;;;;13.38;8.45;;;;;;;;;;5033996;28;20054;-78
2023/06/06 03:13:18;;;;;;;16.48;7.95;;;;;;;;;;5034624;28;20049;-78
2023/06/06 03:15:44;;;;;;;13.32;8.80;;;;;;;;;;5034485;28;20092;-78
2023/06/06 03:18:17;;;;;;;14.20;8.07;;;;;;;;;;5034334;28;20128;-79
2023/06/06 03:20:48;;;;;;;12.35;7.57;;;;;;;;;;5017978;28;20049;-78
2023/06/06 03:23:14;;;;;;;14.23;7.53;;;;;;;;;;5014745;28;20077;-79
2023/06/06 03:25:44;;;;;;;10.93;7.22;;;;;;;;;;5014649;28;20038;-78
2023/06/06 03:28:10;;;;;;;15.68;7.72;;;;;;;;;;5014528;28;20045;-78
2023/06/06 03:30:37;;;;;;;12.50;7.18;;;;;;;;;;5014259;28;20372;-78
2023/06/06 03:33:05;;;;;;;12.23;6.43;;;;;;;;;;5022008;28;20045;-78
2023/06/06 03:35:32;;;;;;;11.88;6.63;;;;;;;;;;5033779;28;20053;-78
2023/06/06 03:37:58;;;;;;;13.43;7.13;;;;;;;;;;5034165;28;20041;-79
2023/06/06 03:40:25;;;;;;;16.05;7.55;;;;;;;;;;5033165;28;20048;-79
2023/06/06 03:42:51;;;;;;;12.70;7.78;;;;;;;;;;5014435;28;20042;-79
2023/06/06 03:45:17;;;;;;;14.93;8.48;;;;;;;;;;5014246;28;20041;-79
2023/06/06 03:47:44;;;;;;;17.27;8.43;;;;;;;;;;5014261;28;20077;-79
2023/06/06 03:50:10;;;;;;;15.25;7.40;;;;;;;;;;5031942;28;20045;-78
2023/06/06 03:52:37;;;;;;;14.13;7.93;;;;;;;;;;5033964;28;20042;-78
2023/06/06 03:55:03;;;;;;;14.20;7.82;;;;;;;;;;5032152;28;20176;-78
2023/06/06 03:57:29;;;;;;;13.52;6.95;;;;;;;;;;5032500;28;20203;-78
2023/06/06 03:59:55;;;;;;;12.88;7.68;;;;;;;;;;5033780;28;20045;-79
2023/06/06 04:02:22;;;;;;;13.90;7.00;;;;;;;;;;5034436;28;20038;-79
2023/06/06 04:04:52;;;;;;;12.18;6.60;;;;;;;;;;5026130;28;20064;-79
2023/06/06 04:07:18;;;;;;;13.80;6.57;;;;;;;;;;5013940;28;20049;-79
2023/06/06 04:09:44;;;;;;;11.88;6.50;;;;;;;;;;5013830;28;20184;-79
2023/06/06 04:12:11;;;;;;;12.15;6.32;;;;;;;;;;5014273;28;20065;-79
2023/06/06 04:14:37;;;;;;;11.07;6.10;;;;;;;;;;5012472;28;20065;-79
2023/06/06 04:17:03;;;;;;;11.27;6.43;;;;;;;;;;5012532;28;20050;-79
2023/06/06 04:19:30;;;;;;;12.77;6.60;;;;;;;;;;5005450;28;20049;-78
2023/06/06 04:21:56;;;;;;;11.02;6.50;;;;;;;;;;5033359;28;20056;-78
2023/06/06 04:24:22;;;;;;;9.82;6.03;;;;;;;;;;5031665;28;20056;-78
2023/06/06 04:26:48;;;;;;;11.50;6.47;;;;;;;;;;5033677;28;20042;-78
2023/06/06 04:29:14;;;;;;;10.80;6.45;;;;;;;;;;5033395;28;20145;-78
2023/06/06 04:31:40;;;;;;;10.90;6.32;;;;;;;;;;5015511;28;20535;-78
2023/06/06 04:34:10;;;;;;;9.77;6.07;;;;;;;;;;5036902;28;20052;-78
2023/06/06 04:36:40;;;;;;;12.45;7.20;;;;;;;;;;5052053;28;20037;-78
2023/06/06 04:39:07;;;;;;;9.13;5.93;;;;;;;;;;5032902;28;20408;-78
2023/06/06 04:41:34;;;;;;;9.75;5.90;;;;;;;;;;5048897;28;20107;-78
2023/06/06 04:44:04;;;;;;;11.70;6.15;;;;;;;;;;5051524;28;20080;-79
2023/06/06 04:46:30;;;;;;;10.82;6.30;;;;;;;;;;5050086;28;20056;-79
2023/06/06 04:48:59;;;;;;;10.50;5.78;;;;;;;;;;5011761;28;20096;-78
2023/06/06 04:51:29;;;;;;;11.52;6.25;;;;;;;;;;5013462;28;20104;-79
2023/06/06 04:53:59;;;;;;;11.77;5.78;;;;;;;;;;5013482;28;20089;-79
2023/06/06 04:56:28;;;;;;;10.27;5.72;;;;;;;;;;5012084;28;20038;-79
2023/06/06 04:58:54;;;;;;;10.32;6.18;;;;;;;;;;5013272;28;20042;-79
2023/06/06 05:01:21;;;;;;;9.95;6.20;;;;;;;;;;5031696;28;20120;-79
2023/06/06 05:03:47;;;;;;;11.10;6.00;;;;;;;;;;5028595;28;20064;-79
2023/06/06 05:06:13;;;;;;;11.55;6.25;;;;;;;;;;5052688;28;20133;-79
2023/06/06 05:08:49;;;;;;;10.13;6.35;;;;;;;;;;5024402;28;20237;-79
2023/06/06 05:11:18;;;;;;;10.10;5.88;;;;;;;;;;5013980;28;20529;-79
2023/06/06 05:13:44;;;;;;;10.02;5.75;;;;;;;;;;5031615;28;20050;-79
2023/06/06 05:16:10;;;;;;;7.78;5.30;;;;;;;;;;5033136;28;20181;-79
2023/06/06 05:18:37;;;;;;;9.68;5.88;;;;;;;;;;5038537;28;20111;-79
2023/06/06 05:21:04;;;;;;;11.75;5.88;;;;;;;;;;5026567;28;20072;-82
2023/06/06 05:23:30;;;;;;;11.43;6.15;;;;;;;;;;5033963;28;20045;-81
2023/06/06 05:25:57;;;;;;;12.15;5.75;;;;;;;;;;5036800;28;20046;-78
2023/06/06 05:28:26;;;;;;;9.65;5.60;;;;;;;;;;5037679;28;20057;-79
2023/06/06 05:30:52;;;;;;;12.90;5.85;;;;;;;;;;5045762;28;20041;-79
2023/06/06 05:33:19;;;;;;;8.45;5.03;;;;;;;;;;5046513;28;20462;-79
2023/06/06 05:35:48;;;;;;;7.03;4.90;;;;;;;;;;5034023;28;20042;-79
2023/06/06 05:38:16;;;;;;;9.10;4.82;;;;;;;;;;5016465;28;20041;-78
2023/06/06 05:40:42;;;;;;;9.77;4.60;;;;;;;;;;5038238;28;21324;-78
2023/06/06 05:43:08;;;;;;;9.43;4.90;;;;;;;;;;5049700;28;20045;-78
2023/06/06 05:45:35;;;;;;;8.35;4.50;;;;;;;;;;5023473;28;20077;-78
2023/06/06 05:48:01;;;;;;;10.40;4.65;;;;;;;;;;5017286;28;20096;-78
2023/06/06 05:50:27;;;;;;;6.80;4.40;;;;;;;;;;5016509;28;20042;-78
2023/06/06 05:52:53;;;;;;;8.02;4.72;;;;;;;;;;5016423;28;20591;-79
2023/06/06 05:55:30;;;;;;;9.02;4.70;;;;;;;;;;5015822;28;20188;-79
2023/06/06 05:57:56;;;;;;;5.25;4.05;;;;;;;;;;5016635;28;20100;-79
2023/06/06 06:00:23;;;;;;;9.57;4.55;;;;;;;;;;5019079;28;20045;-79
2023/06/06 06:02:51;;;;;;;6.70;4.18;;;;;;;;;;5023718;28;20033;-78
2023/06/06 06:05:20;;;;;;;6.65;4.25;;;;;;;;;;5036633;28;20129;-79
2023/06/06 06:07:47;;;;;;;6.22;4.35;;;;;;;;;;5036276;28;20115;-79
2023/06/06 06:10:14;;;;;;;9.90;5.07;;;;;;;;;;5037204;28;20093;-79
2023/06/06 06:12:41;;;;;;;10.23;4.80;;;;;;;;;;5036155;28;20519;-79
2023/06/06 06:15:08;;;;;;;12.13;5.25;;;;;;;;;;5021459;28;20061;-79
2023/06/06 06:17:34;;;;;;;9.85;5.70;;;;;;;;;;5021334;28;20423;-79
2023/06/06 06:20:06;;;;;;;10.27;5.20;;;;;;;;;;5038403;28;20407;-79
2023/06/06 06:22:32;;;;;;;7.80;4.50;;;;;;;;;;5036660;28;20041;-78
2023/06/06 06:24:58;;;;;;;7.55;4.40;;;;;;;;;;5037705;28;20136;-79
2023/06/06 06:27:24;;;;;;;10.27;5.03;;;;;;;;;;5038519;28;20101;-81
2023/06/06 06:29:50;;;;;;;10.02;4.57;;;;;;;;;;5035486;28;20044;-78
2023/06/06 06:32:17;;;;;;;8.55;4.85;;;;;;;;;;5057088;28;20048;-82
2023/06/06 06:34:43;;;;;;;8.15;4.43;;;;;;;;;;5055397;28;20092;-77
2023/06/06 06:37:09;;;;;;;6.70;4.03;;;;;;;;;;5053099;28;20072;-77
2023/06/06 06:39:35;;;;;;;9.75;4.30;;;;;;;;;;5055111;28;20049;-77
2023/06/06 06:42:02;;;;;;;8.48;4.30;;;;;;;;;;5055142;28;20049;-77
2023/06/06 06:44:28;;;;;;;7.65;4.30;;;;;;;;;;5049255;28;20049;-78
2023/06/06 06:46:54;;;;;;;6.28;4.50;;;;;;;;;;5014456;28;20053;-77
2023/06/06 06:49:20;;;;;;;10.43;4.70;;;;;;;;;;5015518;28;20053;-78
2023/06/06 06:51:47;;;;;;;10.18;4.88;;;;;;;;;;5014121;28;20133;-78
2023/06/06 06:54:15;;;;;;;11.70;5.40;;;;;;;;;;5013994;28;20050;-77
2023/06/06 06:56:41;;;;;;;7.15;4.38;;;;;;;;;;5015419;28;20046;-78
2023/06/06 06:59:09;;;;;;;7.72;5.20;;;;;;;;;;5020678;28;20345;-78
2023/06/06 07:01:37;;;;;;;9.57;4.40;;;;;;;;;;5015817;28;20125;-77
2023/06/06 07:04:04;;;;;;;8.55;4.75;;;;;;;;;;5013474;28;20495;-77
2023/06/06 07:06:33;;;;;;;6.50;4.55;;;;;;;;;;5015112;28;20077;-77
2023/06/06 07:09:00;;;;;;;12.93;4.82;;;;;;;;;;5014919;28;20057;-78
2023/06/06 07:11:26;;;;;;;10.02;4.60;;;;;;;;;;5032350;28;20538;-77
2023/06/06 07:13:52;;;;;;;7.80;4.47;;;;;;;;;;5034712;28;20061;-78
2023/06/06 07:16:20;;;;;;;8.80;4.78;;;;;;;;;;5035105;28;20388;-77
2023/06/06 07:18:47;;;;;;;10.32;4.72;;;;;;;;;;5033209;28;20079;-78
2023/06/06 07:21:13;;;;;;;5.55;4.35;;;;;;;;;;5034793;28;20375;-78
2023/06/06 07:23:39;;;;;;;10.00;4.47;;;;;;;;;;5033987;28;20446;-78
2023/06/06 07:26:06;;;;;;;8.25;5.05;;;;;;;;;;5034064;28;20449;-78
2023/06/06 07:28:33;;;;;;;10.40;4.47;;;;;;;;;;5034564;28;20092;-78
2023/06/06 07:30:59;;;;;;;10.40;4.85;;;;;;;;;;5034149;28;20100;-77
2023/06/06 07:33:26;;;;;;;8.38;5.28;;;;;;;;;;5034270;28;20060;-77
2023/06/06 07:35:52;;;;;;;7.68;4.50;;;;;;;;;;5034510;28;20045;-78
2023/06/06 07:38:18;;;;;;;7.38;5.10;;;;;;;;;;5049784;28;20123;-78
2023/06/06 07:40:45;;;;;;;8.70;5.18;;;;;;;;;;5019618;28;20050;-77
2023/06/06 07:43:11;;;;;;;6.60;4.38;;;;;;;;;;5013081;28;20515;-78
2023/06/06 07:45:37;;;;;;;9.25;4.55;;;;;;;;;;5014181;28;20050;-78
2023/06/06 07:48:04;;;;;;;7.45;4.85;;;;;;;;;;5016424;28;20077;-78
2023/06/06 07:50:30;;;;;;;6.80;4.70;;;;;;;;;;5014188;28;20046;-78
2023/06/06 07:52:56;;;;;;;8.15;5.13;;;;;;;;;;5014372;28;20508;-78
2023/06/06 07:55:24;;;;;;;9.65;5.63;;;;;;;;;;5024636;28;20129;-77
2023/06/06 07:57:51;;;;;;;8.57;5.78;;;;;;;;;;5034128;28;20060;-78
2023/06/06 08:00:17;;;;;;;9.07;5.13;;;;;;;;;;5033892;28;20065;-77
2023/06/06 08:02:43;;;;;;;8.07;4.80;;;;;;;;;;5033966;28;20511;-78
2023/06/06 08:05:10;;;;;;;8.07;4.78;;;;;;;;;;5032664;28;20045;-78
2023/06/06 08:07:38;;;;;;;7.38;4.78;;;;;;;;;;5034133;28;20045;-78
2023/06/06 08:10:05;;;;;;;9.45;4.80;;;;;;;;;;5033496;28;20572;-78
2023/06/06 08:12:32;;;;;;;8.63;5.55;;;;;;;;;;5032138;28;20081;-77
2023/06/06 08:14:58;;;;;;;16.15;5.38;;;;;;;;;;5033418;28;20496;-78
2023/06/06 08:17:24;;;;;;;7.30;4.90;;;;;;;;;;5016056;28;20049;-78
2023/06/06 08:19:50;;;;;;;7.82;4.30;;;;;;;;;;5033444;28;20120;-77
2023/06/06 08:22:17;;;;;;;5.97;5.03;;;;;;;;;;5033520;28;20132;-77
2023/06/06 08:24:43;;;;;;;9.25;4.60;;;;;;;;;;5023470;28;20537;-77
2023/06/06 08:27:10;;;;;;;7.57;4.80;;;;;;;;;;5013696;28;20192;-78
2023/06/06 08:29:36;;;;;;;9.88;5.20;;;;;;;;;;5013496;28;20050;-77
2023/06/06 08:32:04;;;;;;;8.13;4.93;;;;;;;;;;5013833;28;20042;-77
2023/06/06 08:34:30;;;;;;;11.48;5.57;;;;;;;;;;5041492;28;20510;-77
2023/06/06 08:36:56;;;;;;;8.50;5.57;;;;;;;;;;5053313;28;20399;-77
2023/06/06 08:39:22;;;;;;;10.50;5.55;;;;;;;;;;5053374;28;20049;-78
2023/06/06 08:41:53;;;;;;;6.68;5.20;;;;;;;;;;5039985;28;20049;-78
2023/06/06 08:44:20;;;;;;;8.95;5.25;;;;;;;;;;5033030;28;20038;-78
2023/06/06 08:46:48;;;;;;;8.02;5.43;;;;;;;;;;5033728;28;20045;-78
2023/06/06 08:49:17;;;;;;;9.35;4.88;;;;;;;;;;5034926;28;20100;-78
2023/06/06 08:51:43;;;;;;;7.35;4.53;;;;;;;;;;5037904;28;20049;-78
2023/06/06 08:54:09;;;;;;;9.32;5.13;;;;;;;;;;5038473;28;20044;-78
2023/06/06 08:56:37;;;;;;;8.35;4.78;;;;;;;;;;5033892;28;20395;-78
2023/06/06 08:59:03;;;;;;;10.40;5.47;;;;;;;;;;5033029;28;20076;-78
2023/06/06 09:01:30;;;;;;;8.00;4.72;;;;;;;;;;5035802;28;20065;-78
2023/06/06 09:03:58;;;;;;;9.20;5.03;;;;;;;;;;5037451;28;20049;-78
2023/06/06 09:06:24;;;;;;;7.93;4.72;;;;;;;;;;5037230;28;20049;-78
2023/06/06 09:08:50;;;;;;;9.75;5.30;;;;;;;;;;5037019;28;20072;-77
2023/06/06 09:11:17;;;;;;;9.48;5.75;;;;;;;;;;5035732;28;20068;-77
2023/06/06 09:13:44;;;;;;;13.63;5.75;;;;;;;;;;5036613;28;20064;-78
2023/06/06 09:16:10;;;;;;;8.25;4.95;;;;;;;;;;5035204;28;20041;-78
2023/06/06 09:18:38;;;;;;;10.05;5.70;;;;;;;;;;5036510;28;20429;-77
2023/06/06 09:21:04;;;;;;;9.05;5.25;;;;;;;;;;5036373;28;20100;-78
2023/06/06 09:23:31;;;;;;;8.32;6.15;;;;;;;;;;5036446;28;20049;-78
2023/06/06 09:25:57;;;;;;;12.43;6.55;;;;;;;;;;5022860;28;20065;-78
2023/06/06 09:28:37;;;;;;;10.00;5.72;;;;;;;;;;5019155;28;20177;-78
2023/06/06 09:31:22;;;;;;;7.70;5.35;;;;;;;;;;5016783;28;20057;-78
2023/06/06 09:33:49;;;;;;;8.80;5.07;;;;;;;;;;4999064;28;20042;-78
2023/06/06 09:36:15;;;;;;;11.75;5.80;;;;;;;;;;5016440;28;20057;-78
2023/06/06 09:38:42;;;;;;;7.57;5.38;;;;;;;;;;5017371;28;20144;-78
2023/06/06 09:41:08;;;;;;;8.27;5.03;;;;;;;;;;5055693;28;20049;-77
2023/06/06 09:43:37;;;;;;;10.05;5.43;;;;;;;;;;5025835;28;20058;-78
2023/06/06 09:46:05;;;;;;;10.50;6.50;;;;;;;;;;5016550;28;20052;-77
2023/06/06 09:48:32;;;;;;;12.95;6.45;;;;;;;;;;5015460;28;20412;-77
2023/06/06 09:50:58;;;;;;;11.73;6.10;;;;;;;;;;5016366;28;20042;-78
2023/06/06 09:53:28;;;;;;;11.50;6.30;;;;;;;;;;5016658;28;20045;-78
2023/06/06 09:55:56;;;;;;;10.18;5.75;;;;;;;;;;5016978;28;20045;-78
2023/06/06 09:58:22;;;;;;;9.23;5.57;;;;;;;;;;5053762;28;20124;-78
2023/06/06 10:00:50;;;;;;;12.38;6.10;;;;;;;;;;5055668;28;20044;-78
2023/06/06 10:03:20;;;;;;;12.23;6.63;;;;;;;;;;5044630;28;20499;-78
2023/06/06 10:05:47;;;;;;;8.77;5.47;;;;;;;;;;5036028;28;20126;-78
2023/06/06 10:08:14;;;;;;;9.07;6.15;;;;;;;;;;5036394;28;20072;-78
2023/06/06 10:10:44;;;;;;;12.05;6.53;;;;;;;;;;5035802;28;20042;-78
2023/06/06 10:13:12;;;;;;;11.65;6.28;;;;;;;;;;5024431;28;20499;-78
2023/06/06 10:15:39;;;;;;;8.68;5.75;;;;;;;;;;5015831;28;20045;-78
2023/06/06 10:18:05;;;;;;;7.75;5.60;;;;;;;;;;5016806;28;20088;-78
2023/06/06 10:20:32;;;;;;;11.40;6.63;;;;;;;;;;5015005;28;20076;-78
2023/06/06 10:23:01;;;;;;;11.82;6.35;;;;;;;;;;5015698;28;20042;-78
2023/06/06 10:25:27;;;;;;;11.77;7.03;;;;;;;;;;5015973;28;20116;-78
2023/06/06 10:27:53;;;;;;;10.35;6.65;;;;;;;;;;5016546;28;20069;-77
2023/06/06 10:30:28;;;;;;;15.45;8.27;;;;;;;;;;5015929;28;20092;-78
2023/06/06 10:33:17;;;;;;;9.70;6.75;;;;;;;;;;5015608;28;20121;-77
2023/06/06 10:35:44;;;;;;;12.95;5.93;;;;;;;;;;5046238;28;20411;-78
2023/06/06 10:38:10;;;;;;;9.60;6.93;;;;;;;;;;5035348;28;20049;-77
2023/06/06 10:40:52;;;;;;;12.18;7.28;;;;;;;;;;5035649;28;20046;-78
2023/06/06 10:43:24;;;;;;;10.80;6.50;;;;;;;;;;5035546;28;20045;-78
2023/06/06 10:45:50;;;;;;;13.50;6.22;;;;;;;;;;5035450;28;20048;-78
2023/06/06 10:48:16;;;;;;;9.43;7.10;;;;;;;;;;5036052;28;20076;-78
2023/06/06 10:50:53;;;;;;;11.90;7.65;;;;;;;;;;5034992;28;20537;-78
2023/06/06 10:53:19;;;;;;;11.13;6.93;;;;;;;;;;5035920;28;20073;-78
2023/06/06 10:55:46;;;;;;;14.75;7.78;;;;;;;;;;5035656;28;20144;-78
2023/06/06 10:58:28;;;;;;;11.07;8.20;;;;;;;;;;5035368;28;20057;-78
2023/06/06 11:01:14;;;;;;;12.02;7.47;;;;;;;;;;5033690;28;20462;-78
2023/06/06 11:03:41;;;;;;;12.38;7.05;;;;;;;;;;5041843;28;20057;-78
2023/06/06 11:06:11;;;;;;;13.63;7.45;;;;;;;;;;5017274;28;20169;-77
2023/06/06 11:08:37;;;;;;;13.10;7.68;;;;;;;;;;5015688;28;20048;-78
2023/06/06 11:11:15;;;;;;;10.93;6.40;;;;;;;;;;5014772;28;20333;-78
2023/06/06 11:13:58;;;;;;;16.35;6.70;;;;;;;;;;5015468;28;20054;-78
2023/06/06 11:16:50;;;;;;;12.40;6.40;;;;;;;;;;5015432;28;20129;-78
2023/06/06 11:19:19;;;;;;;9.23;5.43;;;;;;;;;;5046034;28;20038;-78
2023/06/06 11:21:49;;;;;;;10.18;5.60;;;;;;;;;;5035027;28;20510;-78
2023/06/06 11:24:16;;;;;;;13.38;6.57;;;;;;;;;;5034147;28;20041;-78
2023/06/06 11:26:43;;;;;;;14.70;6.85;;;;;;;;;;5034872;28;20052;-78
2023/06/06 11:29:10;;;;;;;10.60;6.10;;;;;;;;;;5034317;28;20118;-78
2023/06/06 11:31:37;;;;;;;11.60;5.88;;;;;;;;;;5034577;28;20098;-78
2023/06/06 11:34:07;;;;;;;9.30;5.60;;;;;;;;;;5034316;28;20053;-78
2023/06/06 11:36:34;;;;;;;11.85;5.28;;;;;;;;;;5016396;28;20470;-78
2023/06/06 11:39:00;;;;;;;10.57;5.32;;;;;;;;;;5034194;28;20072;-78
2023/06/06 11:41:29;;;;;;;10.88;5.35;;;;;;;;;;5034254;28;20059;-78
2023/06/06 11:43:55;;;;;;;7.85;5.32;;;;;;;;;;5032961;28;20056;-78
2023/06/06 11:46:21;;;;;;;8.13;5.40;;;;;;;;;;5035102;28;20041;-78
2023/06/06 11:48:55;;;;;;;11.27;5.63;;;;;;;;;;5017761;28;20049;-78
2023/06/06 11:51:21;;;;;;;10.48;4.82;;;;;;;;;;4996891;28;20147;-78
2023/06/06 11:53:48;;;;;;;7.85;4.68;;;;;;;;;;5014508;28;20046;-78
2023/06/06 11:56:15;;;;;;;7.50;5.30;;;;;;;;;;5026375;28;20095;-77
2023/06/06 11:58:41;;;;;;;9.13;5.50;;;;;;;;;;5034184;28;20163;-78
2023/06/06 12:01:09;;;;;;;8.05;4.85;;;;;;;;;;5032664;28;20041;-78
2023/06/06 12:03:35;;;;;;;12.23;5.10;;;;;;;;;;5020158;28;20045;-78
2023/06/06 12:06:04;;;;;;;9.15;4.40;;;;;;;;;;5028857;28;20459;-78
2023/06/06 12:08:34;;;;;;;9.43;5.22;;;;;;;;;;5012762;28;20045;-78
2023/06/06 12:11:19;;;;;;;10.95;4.95;;;;;;;;;;5014567;28;20082;-78
2023/06/06 12:13:45;;;;;;;9.85;5.47;;;;;;;;;;5018768;28;20077;-78
2023/06/06 12:16:11;;;;;;;13.77;5.90;;;;;;;;;;5018265;28;20049;-77
2023/06/06 12:18:46;;;;;;;7.85;5.18;;;;;;;;;;5016273;28;20484;-78
2023/06/06 12:21:15;;;;;;;10.82;5.88;;;;;;;;;;5012594;28;20044;-78
2023/06/06 12:23:43;;;;;;;9.07;5.05;;;;;;;;;;5014228;28;20119;-77
2023/06/06 12:26:12;;;;;;;11.38;5.30;;;;;;;;;;5028662;28;20054;-78
2023/06/06 12:28:58;;;;;;;9.35;5.50;;;;;;;;;;5012423;28;20041;-78
2023/06/06 12:31:25;;;;;;;11.18;5.28;;;;;;;;;;5014066;28;20099;-78
2023/06/06 12:33:53;;;;;;;8.25;4.50;;;;;;;;;;5012407;28;20518;-78
2023/06/06 12:36:19;;;;;;;8.10;4.78;;;;;;;;;;5012439;28;20054;-78
2023/06/06 12:38:59;;;;;;;8.65;5.38;;;;;;;;;;5013418;28;20042;-78
2023/06/06 12:41:43;;;;;;;11.30;5.03;;;;;;;;;;5031103;28;20088;-78
2023/06/06 12:44:15;;;;;;;8.15;5.07;;;;;;;;;;5015262;28;20136;-78
2023/06/06 12:46:43;;;;;;;9.23;5.00;;;;;;;;;;5033337;28;20046;-78
2023/06/06 12:49:09;;;;;;;6.88;4.00;;;;;;;;;;5032088;28;20053;-78
2023/06/06 12:51:37;;;;;;;8.15;4.60;;;;;;;;;;5033201;28;20046;-78
2023/06/06 12:54:03;;;;;;;9.80;5.43;;;;;;;;;;5032453;28;20121;-78
2023/06/06 12:56:30;;;;;;;9.18;5.15;;;;;;;;;;5033568;28;20049;-77
2023/06/06 12:58:57;;;;;;;8.27;4.40;;;;;;;;;;5032944;28;20128;-78
2023/06/06 13:01:24;;;;;;;9.02;4.88;;;;;;;;;;5025791;28;20492;-78
2023/06/06 13:03:51;;;;;;;7.10;4.82;;;;;;;;;;5031282;28;20042;-78
2023/06/06 13:06:17;;;;;;;8.68;4.90;;;;;;;;;;5033435;28;20490;-78
2023/06/06 13:08:43;;;;;;;8.73;5.55;;;;;;;;;;5015606;28;20053;-78
2023/06/06 13:11:10;;;;;;;9.63;5.40;;;;;;;;;;5032607;28;20084;-77
2023/06/06 13:13:36;;;;;;;9.07;5.25;;;;;;;;;;5037212;28;20446;-78
2023/06/06 13:16:03;;;;;;;10.70;5.32;;;;;;;;;;5034613;28;20088;-78
2023/06/06 13:18:29;;;;;;;11.48;5.47;;;;;;;;;;5033170;28;20092;-78
2023/06/06 13:20:56;;;;;;;12.85;5.45;;;;;;;;;;5031705;28;20049;-78
2023/06/06 13:23:22;;;;;;;11.68;5.45;;;;;;;;;;5032618;28;20080;-78
2023/06/06 13:25:52;;;;;;;13.75;5.05;;;;;;;;;;5031385;28;20038;-78
2023/06/06 13:28:18;;;;;;;13.82;5.20;;;;;;;;;;5032725;28;20042;-78
2023/06/06 13:30:44;;;;;;;11.73;5.20;;;;;;;;;;5015548;28;20053;-78
2023/06/06 13:33:10;;;;;;;8.77;4.82;;;;;;;;;;5033429;28;20080;-78
2023/06/06 13:35:36;;;;;;;15.18;5.47;;;;;;;;;;5032732;28;20128;-78
2023/06/06 13:38:02;;;;;;;10.13;4.88;;;;;;;;;;5032895;28;20129;-78
2023/06/06 13:40:28;;;;;;;10.27;5.38;;;;;;;;;;5032561;28;20041;-78
2023/06/06 13:42:55;;;;;;;12.55;5.88;;;;;;;;;;5012852;28;20115;-78
2023/06/06 13:45:21;;;;;;;7.95;4.53;;;;;;;;;;5012557;28;20139;-78
2023/06/06 13:47:48;;;;;;;10.75;4.60;;;;;;;;;;5015187;28;20109;-77
2023/06/06 13:50:14;;;;;;;11.30;4.78;;;;;;;;;;5016793;28;20049;-78
2023/06/06 13:52:42;;;;;;;9.25;4.90;;;;;;;;;;5016616;28;20117;-78
2023/06/06 13:55:08;;;;;;;10.10;5.05;;;;;;;;;;5016462;28;20057;-78
2023/06/06 13:57:40;;;;;;;8.43;4.60;;;;;;;;;;5015181;28;20088;-78
2023/06/06 14:00:08;;;;;;;8.45;4.60;;;;;;;;;;5016435;28;20046;-78
2023/06/06 14:02:34;;;;;;;8.80;6.07;;;;;;;;;;5016079;28;20449;-78
2023/06/06 14:05:00;;;;;;;10.30;5.90;;;;;;;;;;5016304;28;20050;-78
2023/06/06 14:07:26;;;;;;;8.50;5.38;;;;;;;;;;5014857;28;20042;-78
2023/06/06 14:09:52;;;;;;;8.50;5.28;;;;;;;;;;5016255;28;20042;-78
2023/06/06 14:12:18;;;;;;;10.82;5.13;;;;;;;;;;5016313;28;20140;-78
2023/06/06 14:14:46;;;;;;;7.05;4.72;;;;;;;;;;5015992;28;20054;-78
2023/06/06 14:17:12;;;;;;;7.18;5.00;;;;;;;;;;5016246;28;20049;-78
2023/06/06 14:19:42;;;;;;;12.88;5.90;;;;;;;;;;5015715;28;20128;-78
2023/06/06 14:22:23;;;;;;;9.13;5.60;;;;;;;;;;5016225;28;20401;-78
2023/06/06 14:24:50;;;;;;;12.07;5.40;;;;;;;;;;5015864;28;20489;-78
2023/06/06 14:27:16;;;;;;;9.48;4.78;;;;;;;;;;5035251;28;20104;-78
2023/06/06 14:29:42;;;;;;;11.13;6.13;;;;;;;;;;5028227;28;20099;-78
2023/06/06 14:32:10;;;;;;;9.35;4.75;;;;;;;;;;5014354;28;20387;-78
2023/06/06 14:34:37;;;;;;;9.30;5.07;;;;;;;;;;5014937;28;20057;-78
2023/06/06 14:37:04;;;;;;;8.65;5.60;;;;;;;;;;5014565;28;20431;-78
2023/06/06 14:39:30;;;;;;;8.52;5.30;;;;;;;;;;5014225;28;20088;-77